Terminal Aerodrome Forecast
Issued by NWS Charleston, WV

Home | Current Version | Previous Version | Text Only | Print | Product List | Glossary On
Versions: 1 2 3 4 5 6 7 8 9 10 11 12 13 14 15 16 17 18 19 20 21 22 23 24 25 26
000
FTUS41 KRLX 281700
TAFHTS
TAF
KHTS 281733Z 2818/2918 00000KT P6SM FEW025
     FM282100 VRB03KT P6SM SCT200
     FM290900 15005KT P6SM BKN100
     FM291400 18009G15KT P6SM OVC100
     FM291600 19010G18KT 6SM -RA BR OVC060=

USA.gov is the U.S. government's official web portal to all federal, state and local government web resources and services.